Time;durP1;ratioP1;P1;durP2;ratioP2;P2;SDS_P1;SDS_P2;PMS_P1;PMS_P2;Temp;Humidity;BMP_temperature;BMP_pressure;BME280_temperature;BME280_humidity;BME280_pressure;Samples;Min_cycle;Max_cycle;Signal;HPM_P1;HPM_P2
2022/11/04 00:02:02;;;;;;;26.05;18.05;;;11.30;99.90;;;;;;5016840;28;20054;-87
2022/11/04 00:04:28;;;;;;;27.60;18.23;;;11.30;99.90;;;;;;5011913;28;20099;-89
2022/11/04 00:06:55;;;;;;;16.92;12.00;;;11.30;99.90;;;;;;5011467;28;20056;-86
2022/11/04 00:09:24;;;;;;;14.05;8.57;;;11.30;99.90;;;;;;5012607;28;20054;-87
2022/11/04 00:14:35;;;;;;;15.35;10.23;;;11.30;99.90;;;;;;5014218;28;20526;-83
2022/11/04 00:33:24;;;;;;;9.57;3.45;;;11.00;99.90;;;;;;5018004;28;20115;-84
2022/11/04 00:33:44;;;;;;;5.75;1.60;;;10.90;99.90;;;;;;5019978;28;20120;-84
2022/11/04 00:36:09;;;;;;;7.22;1.17;;;10.90;99.90;;;;;;5023429;28;20056;-83
2022/11/04 00:38:35;;;;;;;1.85;0.40;;;10.90;99.90;;;;;;5013367;28;20424;-85
2022/11/04 00:41:01;;;;;;;6.75;0.40;;;10.70;99.90;;;;;;5014992;28;20054;-86
2022/11/04 00:43:27;;;;;;;1.80;0.30;;;10.60;99.90;;;;;;5017829;28;20050;-85
2022/11/04 00:45:53;;;;;;;7.57;0.63;;;10.60;99.90;;;;;;5019136;28;20061;-86
2022/11/04 00:48:19;;;;;;;2.03;0.40;;;10.60;99.90;;;;;;5019121;28;20119;-83
2022/11/04 00:50:45;;;;;;;7.18;0.45;;;10.60;99.90;;;;;;5019141;28;20054;-85
2022/11/04 00:53:11;;;;;;;4.90;0.50;;;10.60;99.90;;;;;;5013587;28;20490;-86
2022/11/04 00:55:36;;;;;;;5.65;0.90;;;10.60;99.90;;;;;;5014632;28;20192;-83
2022/11/04 00:58:02;;;;;;;8.77;1.42;;;10.60;99.90;;;;;;5014138;28;20525;-85
2022/11/04 01:00:28;;;;;;;9.40;1.17;;;10.60;99.90;;;;;;5012564;28;20053;-93
2022/11/04 01:02:56;;;;;;;8.25;1.00;;;10.60;99.90;;;;;;5013075;28;20050;-89
2022/11/04 01:05:22;;;;;;;7.15;0.90;;;10.60;99.90;;;;;;5014213;28;20053;-83
2022/11/04 01:07:48;;;;;;;5.78;0.60;;;10.60;99.90;;;;;;5016119;28;20486;-91
2022/11/04 01:10:15;;;;;;;10.55;1.88;;;10.60;99.90;;;;;;5018163;28;20081;-83
2022/11/04 01:12:41;;;;;;;10.43;1.50;;;10.60;99.90;;;;;;5013974;28;20069;-88
2022/11/04 01:15:07;;;;;;;7.95;1.30;;;10.60;99.90;;;;;;5011380;28;20406;-85
2022/11/04 01:17:33;;;;;;;12.20;1.20;;;10.60;99.90;;;;;;5010744;28;20494;-83
2022/11/04 01:19:59;;;;;;;7.28;1.85;;;10.60;99.90;;;;;;5011811;28;20107;-86
2022/11/04 01:22:25;;;;;;;8.70;1.02;;;10.60;99.90;;;;;;5010878;28;20050;-86
2022/11/04 01:24:52;;;;;;;16.33;1.42;;;10.60;99.90;;;;;;5014763;28;20093;-90
2022/11/04 01:27:17;;;;;;;18.10;2.25;;;10.70;99.90;;;;;;5016052;28;20053;-83
2022/11/04 01:29:43;;;;;;;10.27;1.20;;;10.70;99.90;;;;;;5019056;28;20049;-83
2022/11/04 01:32:09;;;;;;;8.88;1.17;;;10.70;99.90;;;;;;4998383;28;20064;-83
2022/11/04 01:34:35;;;;;;;8.70;0.90;;;10.70;99.90;;;;;;5015106;28;20046;-85
2022/11/04 01:37:01;;;;;;;8.32;1.02;;;10.60;99.90;;;;;;5013570;28;20061;-86
2022/11/04 01:39:27;;;;;;;13.88;2.47;;;10.60;99.90;;;;;;5013992;28;20058;-83
2022/11/04 01:41:53;;;;;;;6.85;1.10;;;10.60;99.90;;;;;;5018888;28;20046;-85
2022/11/04 01:44:41;;;;;;;8.07;1.60;;;10.60;99.90;;;;;;5026067;28;20104;-91
2022/11/04 01:47:48;;;;;;;11.20;1.50;;;10.60;99.90;;;;;;5019377;28;20042;-92
2022/11/04 01:50:22;;;;;;;10.20;1.30;;;10.60;99.90;;;;;;5015644;28;20092;-93
2022/11/04 01:53:21;;;;;;;8.83;1.20;;;10.60;99.90;;;;;;5017008;28;20062;-84
2022/11/04 01:55:54;;;;;;;7.88;1.23;;;10.60;99.90;;;;;;5007764;28;20471;-91
2022/11/04 01:58:25;;;;;;;9.63;1.23;;;10.60;99.90;;;;;;5014950;28;20528;-84
2022/11/04 02:00:51;;;;;;;9.70;1.25;;;10.60;99.90;;;;;;5002861;28;20453;-87
2022/11/04 02:03:41;;;;;;;9.48;1.35;;;10.60;99.90;;;;;;5015472;28;20116;-88
2022/11/04 02:06:08;;;;;;;11.65;1.50;;;10.70;99.90;;;;;;5004238;28;20053;-93
2022/11/04 02:08:34;;;;;;;12.52;2.15;;;10.70;99.90;;;;;;5019004;28;20060;-87
2022/11/04 02:11:02;;;;;;;9.85;1.92;;;10.70;99.90;;;;;;5016606;28;20532;-86
2022/11/04 02:13:31;;;;;;;11.30;1.35;;;10.70;99.90;;;;;;5018611;28;20077;-90
2022/11/04 02:16:00;;;;;;;11.27;1.00;;;10.70;99.90;;;;;;5020208;28;20077;-84
2022/11/04 02:18:57;;;;;;;10.52;1.05;;;10.70;99.90;;;;;;5017013;28;20042;-87
2022/11/04 02:21:42;;;;;;;10.75;1.05;;;10.70;99.90;;;;;;5015623;28;20046;-83
2022/11/04 02:24:26;;;;;;;13.60;1.42;;;10.70;99.90;;;;;;5039046;28;20049;-91
2022/11/04 02:27:04;;;;;;;9.45;1.08;;;10.70;99.90;;;;;;5017582;28;20557;-86
2022/11/04 02:29:36;;;;;;;11.90;2.17;;;10.70;99.90;;;;;;5001013;28;20057;-85
2022/11/04 02:32:37;;;;;;;10.10;1.38;;;10.70;99.90;;;;;;5034343;28;20048;-86
2022/11/04 02:35:12;;;;;;;10.52;1.48;;;10.70;99.90;;;;;;5025521;28;20045;-90
2022/11/04 02:37:41;;;;;;;9.07;1.45;;;10.70;99.90;;;;;;5038560;28;20093;-91
2022/11/04 02:40:35;;;;;;;20.30;2.17;;;10.70;99.90;;;;;;5034790;28;20053;-91
2022/11/04 02:43:34;;;;;;;14.50;2.00;;;10.70;99.90;;;;;;5017452;28;20065;-88
2022/11/04 02:46:15;;;;;;;8.98;1.30;;;10.70;99.90;;;;;;5034318;28;20088;-83
2022/11/04 02:48:46;;;;;;;9.95;1.95;;;10.70;99.90;;;;;;5037702;28;20056;-89
2022/11/04 02:51:44;;;;;;;7.40;1.00;;;10.70;99.90;;;;;;5038705;28;20054;-88
2022/11/04 02:54:26;;;;;;;7.07;1.20;;;10.70;99.90;;;;;;5018097;28;20144;-87
2022/11/04 02:56:55;;;;;;;10.15;0.95;;;10.60;99.90;;;;;;5035769;28;20053;-95
2022/11/04 02:59:37;;;;;;;8.20;1.40;;;10.60;99.90;;;;;;5022464;28;20057;-90
2022/11/04 03:02:09;;;;;;;13.63;2.70;;;10.60;99.90;;;;;;5026138;28;20056;-85
2022/11/04 03:04:40;;;;;;;10.38;1.30;;;10.50;99.90;;;;;;5039160;28;20080;-91
2022/11/04 03:07:09;;;;;;;16.10;1.55;;;10.50;99.90;;;;;;5027577;28;20054;-84
2022/11/04 03:09:40;;;;;;;8.77;1.00;;;10.50;99.90;;;;;;5034154;28;20045;-84
2022/11/04 03:12:11;;;;;;;7.18;0.95;;;10.40;99.90;;;;;;5033909;28;20119;-87
2022/11/04 03:14:46;;;;;;;6.85;1.02;;;10.40;99.90;;;;;;5015580;28;20409;-83
2022/11/04 03:17:46;;;;;;;13.52;1.05;;;10.40;99.90;;;;;;5019770;28;20049;-84
2022/11/04 03:20:19;;;;;;;10.45;1.10;;;10.40;99.90;;;;;;5015982;28;20065;-84
2022/11/04 03:22:45;;;;;;;10.48;1.42;;;10.30;99.90;;;;;;5018091;28;20082;-84
2022/11/04 03:25:12;;;;;;;7.63;1.45;;;10.40;99.90;;;;;;5015254;28;20509;-91
2022/11/04 03:27:57;;;;;;;12.95;1.30;;;10.40;99.90;;;;;;5015732;28;20151;-85
2022/11/04 03:30:23;;;;;;;8.73;1.92;;;10.50;99.90;;;;;;5022061;28;20140;-87
2022/11/04 03:33:05;;;;;;;13.50;1.90;;;10.60;99.90;;;;;;5000063;28;20523;-83
2022/11/04 03:35:31;;;;;;;9.57;0.93;;;10.70;99.90;;;;;;5015827;28;20076;-83
2022/11/04 03:37:58;;;;;;;13.90;2.30;;;10.70;99.90;;;;;;5016397;28;20045;-93
2022/11/04 03:40:25;;;;;;;5.22;0.73;;;10.60;99.90;;;;;;5038115;28;20224;-90
2022/11/04 03:42:56;;;;;;;7.72;0.90;;;10.60;99.90;;;;;;5016769;28;20513;-93
2022/11/04 03:45:24;;;;;;;5.85;0.90;;;10.50;99.90;;;;;;5020996;28;20132;-89
2022/11/04 03:47:51;;;;;;;5.78;1.10;;;10.40;99.90;;;;;;5000186;28;20172;-90
2022/11/04 03:50:39;;;;;;;6.90;0.90;;;10.40;99.90;;;;;;5014544;28;20056;-84
2022/11/04 03:53:05;;;;;;;7.10;1.05;;;10.30;99.90;;;;;;5016469;28;20203;-82
2022/11/04 03:55:39;;;;;;;11.85;1.20;;;10.30;99.90;;;;;;5002658;28;20203;-88
2022/11/04 03:58:10;;;;;;;;;;;10.40;99.90;;;;;;5017022;28;20068;-90
2022/11/04 04:00:50;;;;;;;6.03;1.00;;;10.40;99.90;;;;;;5035839;28;19964;-89
2022/11/04 04:03:23;;;;;;;7.53;1.27;;;10.30;99.90;;;;;;5036592;28;20150;-89
2022/11/04 04:05:52;;;;;;;10.88;2.25;;;10.40;99.90;;;;;;5001641;28;20140;-81
2022/11/04 04:08:41;;;;;;;12.90;1.80;;;10.40;99.90;;;;;;5033746;28;20113;-90
2022/11/04 04:11:07;;;;;;;9.20;1.80;;;10.40;99.90;;;;;;5015562;28;20092;-80
2022/11/04 04:13:41;;;;;;;15.32;2.47;;;10.40;99.90;;;;;;5032565;28;20154;-83
2022/11/04 04:16:18;;;;;;;12.30;1.60;;;10.40;99.90;;;;;;5032282;28;20120;-83
2022/11/04 04:19:00;;;;;;;7.38;1.30;;;10.40;99.90;;;;;;5032343;28;20045;-82
2022/11/04 04:21:41;;;;;;;6.40;1.08;;;10.30;99.90;;;;;;5013655;28;20140;-83
2022/11/04 04:29:44;;;;;;;15.68;2.13;;;10.30;99.90;;;;;;5038229;28;20124;-83
2022/11/04 04:32:13;;;;;;;16.02;1.50;;;10.30;99.90;;;;;;5034578;28;20553;-87
2022/11/04 04:34:39;;;;;;;6.25;0.82;;;10.30;99.90;;;;;;5043647;28;20080;-83
2022/11/04 04:37:17;;;;;;;13.35;1.55;;;10.30;99.90;;;;;;5040123;28;20128;-85
2022/11/04 04:44:58;;;;;;;9.00;1.20;;;10.30;99.90;;;;;;5032530;28;20389;-87
2022/11/04 04:45:51;;;;;;;6.45;1.40;;;10.30;99.90;;;;;;5014640;28;20054;-87
2022/11/04 04:48:18;;;;;;;8.68;1.02;;;10.20;99.90;;;;;;5037802;28;20060;-91
2022/11/04 04:50:48;;;;;;;6.35;1.10;;;10.20;99.90;;;;;;4998406;28;20049;-85
2022/11/04 04:53:14;;;;;;;10.00;1.23;;;10.10;99.90;;;;;;5014832;28;20508;-86
2022/11/04 04:55:40;;;;;;;8.02;1.60;;;10.10;99.90;;;;;;5033648;28;20486;-89
2022/11/04 04:58:06;;;;;;;13.98;1.38;;;10.10;99.90;;;;;;5015148;28;20072;-92
2022/11/04 05:00:32;;;;;;;7.15;1.17;;;10.10;99.90;;;;;;5039515;28;20056;-86
2022/11/04 05:02:58;;;;;;;5.68;0.90;;;10.10;99.90;;;;;;5040452;28;20049;-89
2022/11/04 05:05:25;;;;;;;9.45;1.65;;;10.10;99.90;;;;;;5041912;28;20131;-85
2022/11/04 05:07:50;;;;;;;10.32;1.08;;;10.00;99.90;;;;;;5049061;28;20041;-90
2022/11/04 05:10:17;;;;;;;6.57;0.70;;;10.00;99.90;;;;;;5045892;28;20489;-92
2022/11/04 05:15:45;;;;;;;9.52;1.52;;;10.00;99.90;;;;;;4938663;29;20448;-87
2022/11/04 05:18:11;;;;;;;14.90;1.95;;;10.00;99.90;;;;;;5022243;28;20080;-86
2022/11/04 05:20:39;;;;;;;9.25;1.20;;;10.00;99.90;;;;;;5021872;28;20171;-93
2022/11/04 05:23:06;;;;;;;7.47;1.20;;;10.00;99.90;;;;;;5034344;28;20132;-91
2022/11/04 05:25:32;;;;;;;8.30;3.03;;;9.90;99.90;;;;;;5015484;28;20053;-92
2022/11/04 05:28:00;;;;;;;8.77;1.30;;;9.90;99.90;;;;;;5032300;28;20478;-92
2022/11/04 05:30:26;;;;;;;17.30;2.30;;;9.90;99.90;;;;;;5014436;28;20064;-92
2022/11/04 05:32:52;;;;;;;7.65;1.27;;;9.90;99.90;;;;;;5032385;28;20054;-88
2022/11/04 05:35:18;;;;;;;11.82;1.40;;;9.90;99.90;;;;;;5033663;28;20062;-86
2022/11/04 05:37:44;;;;;;;6.47;1.75;;;10.00;99.90;;;;;;5040245;28;20053;-91
2022/11/04 05:40:10;;;;;;;14.15;1.60;;;9.90;99.90;;;;;;5034003;28;20535;-91
2022/11/04 05:42:36;;;;;;;11.10;1.48;;;9.90;99.90;;;;;;5031918;28;20045;-95
2022/11/04 05:45:03;;;;;;;10.75;1.50;;;9.90;99.90;;;;;;5032307;28;20053;-95
2022/11/04 05:47:29;;;;;;;10.60;1.58;;;10.00;99.90;;;;;;5031750;28;20128;-93
2022/11/04 05:49:55;;;;;;;10.05;1.60;;;10.00;99.90;;;;;;5032300;28;20133;-90
2022/11/04 05:52:21;;;;;;;8.00;1.40;;;9.90;99.90;;;;;;5013622;28;20049;-89
2022/11/04 05:54:47;;;;;;;12.32;3.03;;;10.00;99.90;;;;;;5015889;28;20057;-88
2022/11/04 05:57:13;;;;;;;14.52;2.00;;;10.00;99.90;;;;;;5020302;28;20073;-87
2022/11/04 05:59:39;;;;;;;8.88;1.30;;;10.00;99.90;;;;;;5025342;28;20041;-84
2022/11/04 06:02:06;;;;;;;6.13;1.25;;;10.00;99.90;;;;;;5018489;28;20139;-90
2022/11/04 06:04:33;;;;;;;9.35;1.63;;;10.00;99.90;;;;;;5035959;28;20053;-88
2022/11/04 06:06:59;;;;;;;6.57;1.30;;;10.00;99.90;;;;;;5035044;28;20052;-84
2022/11/04 06:09:37;;;;;;;5.28;1.00;;;10.00;99.90;;;;;;5018483;28;20059;-83
2022/11/04 06:12:10;;;;;;;11.10;2.25;;;9.90;99.90;;;;;;5038598;28;20050;-83
2022/11/04 06:14:37;;;;;;;8.98;1.20;;;9.90;99.90;;;;;;5018709;28;20519;-86
2022/11/04 06:17:03;;;;;;;9.35;1.77;;;9.90;99.90;;;;;;5020496;28;20100;-92
2022/11/04 06:19:29;;;;;;;7.50;0.70;;;9.90;99.90;;;;;;5019222;28;20060;-87
2022/11/04 06:21:55;;;;;;;7.80;1.02;;;9.80;99.90;;;;;;5038771;28;20057;-87
2022/11/04 06:24:22;;;;;;;4.85;1.05;;;9.80;99.90;;;;;;5019396;28;20058;-89
2022/11/04 06:26:48;;;;;;;8.07;1.00;;;9.80;99.90;;;;;;5024478;28;20041;-83
2022/11/04 06:29:14;;;;;;;4.88;0.80;;;9.80;99.90;;;;;;5029614;28;20091;-87
2022/11/04 06:31:40;;;;;;;5.93;0.80;;;9.80;99.90;;;;;;5036573;28;20053;-87
2022/11/04 06:34:06;;;;;;;6.85;0.75;;;9.90;99.90;;;;;;5002084;28;20053;-84
2022/11/04 06:36:31;;;;;;;4.10;0.70;;;9.90;99.90;;;;;;5037089;28;20072;-89
2022/11/04 06:38:57;;;;;;;5.50;0.80;;;9.90;99.90;;;;;;5034895;28;20054;-90
2022/11/04 06:41:23;;;;;;;10.50;1.38;;;9.90;99.90;;;;;;5036409;28;20623;-94
2022/11/04 06:43:49;;;;;;;7.30;0.63;;;9.90;99.90;;;;;;5045778;28;20379;-83
2022/11/04 06:46:35;;;;;;;8.95;1.10;;;9.90;99.90;;;;;;5041977;28;20060;-82
2022/11/04 06:49:01;;;;;;;9.93;1.15;;;9.90;99.90;;;;;;5040073;28;20061;-86
2022/11/04 06:51:27;;;;;;;9.15;1.40;;;9.90;99.90;;;;;;5023251;28;20053;-95
2022/11/04 06:53:53;;;;;;;8.45;1.45;;;9.80;99.90;;;;;;5025696;28;20049;-94
2022/11/04 06:56:19;;;;;;;15.38;1.88;;;9.80;99.90;;;;;;5028478;28;20053;-89
2022/11/04 06:58:52;;;;;;;5.90;1.05;;;9.80;99.90;;;;;;5040203;28;20084;-85
2022/11/04 07:01:20;;;;;;;15.13;1.98;;;9.80;99.90;;;;;;5043605;28;20091;-86
2022/11/04 07:03:54;;;;;;;6.13;1.23;;;9.70;99.90;;;;;;5044560;28;20042;-83
2022/11/04 07:06:21;;;;;;;9.10;1.50;;;9.70;99.90;;;;;;5037447;28;20053;-93
2022/11/04 07:08:48;;;;;;;10.77;1.23;;;9.60;99.90;;;;;;5020466;28;20111;-93
2022/11/04 07:11:16;;;;;;;9.85;1.17;;;9.60;99.90;;;;;;5019882;28;20048;-91
2022/11/04 07:13:42;;;;;;;11.13;1.33;;;9.60;99.90;;;;;;5018926;28;20064;-85
2022/11/04 07:16:08;;;;;;;12.15;1.70;;;9.50;99.90;;;;;;5036355;28;20046;-84
2022/11/04 07:18:35;;;;;;;9.90;1.38;;;9.50;99.90;;;;;;5037445;28;20460;-93
2022/11/04 07:21:02;;;;;;;10.57;1.95;;;9.40;99.90;;;;;;5036289;28;20147;-94
2022/11/04 07:23:28;;;;;;;6.53;0.90;;;9.40;99.90;;;;;;5015761;28;20056;-91
2022/11/04 07:26:02;;;;;;;6.32;0.90;;;9.30;99.90;;;;;;5023303;28;20129;-92
2022/11/04 07:28:29;;;;;;;10.52;1.60;;;9.30;99.90;;;;;;5018667;28;20050;-92
2022/11/04 07:30:59;;;;;;;9.95;1.05;;;9.30;99.90;;;;;;5018673;28;20561;-86
2022/11/04 07:33:26;;;;;;;6.47;1.40;;;9.20;99.90;;;;;;5018474;28;20050;-93
2022/11/04 07:35:53;;;;;;;10.32;1.42;;;9.20;99.90;;;;;;5018331;28;20416;-92
2022/11/04 07:38:22;;;;;;;8.90;1.23;;;9.20;99.90;;;;;;5016076;28;20049;-86
2022/11/04 07:40:48;;;;;;;6.28;1.40;;;9.20;99.90;;;;;;5016699;28;20054;-92
2022/11/04 07:43:15;;;;;;;6.63;1.52;;;9.30;99.90;;;;;;5015883;28;20125;-83
2022/11/04 07:45:41;;;;;;;9.75;1.25;;;9.30;99.90;;;;;;5013723;28;20050;-94
2022/11/04 07:48:07;;;;;;;6.47;1.25;;;9.30;99.90;;;;;;5019812;28;20053;-84
2022/11/04 07:50:36;;;;;;;12.15;1.80;;;9.30;99.90;;;;;;5019662;28;20073;-88
2022/11/04 07:53:02;;;;;;;6.03;1.08;;;9.30;99.90;;;;;;5019755;28;20136;-92
2022/11/04 07:55:28;;;;;;;5.90;1.13;;;9.40;99.90;;;;;;5013258;28;20053;-89
2022/11/04 07:57:54;;;;;;;7.55;1.35;;;9.40;99.90;;;;;;5013417;28;20491;-83
2022/11/04 08:00:20;;;;;;;5.95;0.98;;;9.40;99.90;;;;;;5015433;28;20120;-84
2022/11/04 08:02:46;;;;;;;5.78;1.63;;;9.50;99.90;;;;;;5016330;28;20057;-83
2022/11/04 08:05:14;;;;;;;8.43;1.30;;;9.50;99.90;;;;;;5012858;28;20486;-86
2022/11/04 08:07:40;;;;;;;6.57;1.25;;;9.50;99.90;;;;;;5012185;28;20046;-84
2022/11/04 08:10:07;;;;;;;9.13;1.35;;;9.50;99.90;;;;;;5012438;28;20514;-90
2022/11/04 08:12:33;;;;;;;6.07;1.20;;;9.50;99.90;;;;;;5012228;28;20638;-88
2022/11/04 08:14:59;;;;;;;9.05;1.60;;;9.60;99.90;;;;;;5013993;28;20081;-93
2022/11/04 08:17:26;;;;;;;7.63;1.40;;;9.60;99.90;;;;;;5019155;28;20050;-84
2022/11/04 08:19:52;;;;;;;9.73;2.38;;;9.60;99.90;;;;;;4999614;28;20127;-91
2022/11/04 08:22:18;;;;;;;8.95;1.30;;;9.70;99.90;;;;;;5011736;28;20054;-87
2022/11/04 08:24:46;;;;;;;9.52;1.30;;;9.70;99.90;;;;;;5011983;28;20115;-84
2022/11/04 08:27:12;;;;;;;8.05;1.25;;;9.70;99.90;;;;;;5011890;28;20049;-91
2022/11/04 08:29:38;;;;;;;10.95;1.48;;;9.70;99.90;;;;;;5012488;28;20137;-84
2022/11/04 08:32:06;;;;;;;8.27;1.42;;;9.80;99.90;;;;;;5011581;28;20215;-91
2022/11/04 08:34:33;;;;;;;6.45;1.30;;;9.80;99.90;;;;;;4996774;28;20139;-89
2022/11/04 08:36:59;;;;;;;7.25;1.33;;;9.80;99.90;;;;;;5012742;28;20061;-89
2022/11/04 08:39:25;;;;;;;7.10;1.13;;;9.90;99.90;;;;;;5014387;28;20054;-89
2022/11/04 08:41:54;;;;;;;7.43;1.10;;;9.90;99.90;;;;;;4996705;28;20519;-84
2022/11/04 08:44:20;;;;;;;13.07;1.42;;;9.90;99.90;;;;;;5000761;28;20050;-86
2022/11/04 08:46:46;;;;;;;7.63;1.00;;;10.10;99.90;;;;;;5015090;28;20062;-84
2022/11/04 08:49:12;;;;;;;5.70;1.80;;;10.20;99.90;;;;;;5017845;28;20104;-82
2022/11/04 08:51:42;;;;;;;8.50;1.90;;;10.40;99.90;;;;;;5010370;28;20050;-84
2022/11/04 08:54:08;;;;;;;7.13;1.60;;;10.40;99.90;;;;;;5014146;28;20128;-85
2022/11/04 08:56:37;;;;;;;7.53;1.10;;;10.40;99.90;;;;;;5014082;28;20481;-89
2022/11/04 08:59:04;;;;;;;5.10;1.67;;;10.30;99.90;;;;;;5012728;28;20046;-86
2022/11/04 09:01:33;;;;;;;6.85;1.40;;;10.30;99.90;;;;;;5012613;28;20132;-85
2022/11/04 09:03:59;;;;;;;11.00;1.20;;;10.20;99.90;;;;;;5014340;28;20085;-84
2022/11/04 09:06:31;;;;;;;5.03;2.03;;;10.20;99.90;;;;;;5012650;28;20080;-93
2022/11/04 09:09:02;;;;;;;9.77;1.75;;;10.10;99.90;;;;;;5012467;28;20058;-90
2022/11/04 09:11:29;;;;;;;7.88;2.15;;;10.10;99.90;;;;;;5012595;28;20054;-93
2022/11/04 09:14:01;;;;;;;6.20;1.83;;;10.10;99.90;;;;;;5013192;28;20050;-83
2022/11/04 09:16:29;;;;;;;9.40;1.42;;;10.10;99.90;;;;;;5014011;28;20089;-82
2022/11/04 09:18:56;;;;;;;6.70;1.25;;;10.20;99.90;;;;;;5000688;28;20050;-83
2022/11/04 09:21:23;;;;;;;11.88;1.58;;;10.30;99.90;;;;;;5020427;28;20062;-89
2022/11/04 09:23:53;;;;;;;6.07;1.27;;;10.40;99.90;;;;;;5016004;28;20052;-89
2022/11/04 09:26:19;;;;;;;4.88;1.08;;;10.40;99.90;;;;;;5021423;28;20057;-84
2022/11/04 09:28:45;;;;;;;10.07;1.52;;;10.50;99.90;;;;;;5025647;28;20172;-90
2022/11/04 09:31:17;;;;;;;12.00;1.67;;;10.50;99.90;;;;;;5037989;28;20097;-87
2022/11/04 09:33:44;;;;;;;6.38;1.33;;;10.60;99.90;;;;;;5037960;28;20050;-83
2022/11/04 09:36:11;;;;;;;6.95;1.65;;;10.70;99.90;;;;;;5016313;28;20054;-84
2022/11/04 09:38:39;;;;;;;9.80;1.40;;;10.80;99.90;;;;;;5033572;28;20057;-83
2022/11/04 09:41:30;;;;;;;7.00;1.27;;;10.90;99.90;;;;;;5016754;28;20059;-87
2022/11/04 09:44:20;;;;;;;9.10;1.38;;;11.10;99.90;;;;;;5015351;28;20056;-90
2022/11/04 09:46:48;;;;;;;4.50;1.08;;;11.20;99.90;;;;;;5013859;28;20137;-83
2022/11/04 09:49:17;;;;;;;9.02;2.00;;;11.30;99.90;;;;;;5017827;28;20068;-83
2022/11/04 09:51:45;;;;;;;6.47;1.40;;;11.40;99.90;;;;;;5017697;28;20049;-83
2022/11/04 09:54:40;;;;;;;7.55;1.70;;;11.50;99.90;;;;;;5034791;28;20414;-85
2022/11/04 09:57:14;;;;;;;9.50;1.55;;;11.60;99.90;;;;;;5016567;28;20597;-83
2022/11/04 09:59:40;;;;;;;9.02;1.50;;;11.80;99.90;;;;;;5037071;28;20417;-83
2022/11/04 10:02:33;;;;;;;8.50;1.15;;;11.90;99.90;;;;;;5036090;28;20049;-83
2022/11/04 10:05:41;;;;;;;10.75;2.15;;;12.10;99.90;;;;;;5020114;28;20109;-91
2022/11/04 10:08:25;;;;;;;8.40;1.35;;;12.20;99.90;;;;;;4974731;28;20128;-86
2022/11/04 10:11:12;;;;;;;9.82;1.67;;;12.30;99.90;;;;;;4973248;28;20549;-84
2022/11/04 10:14:10;;;;;;;8.77;1.58;;;12.30;99.90;;;;;;5000257;28;20060;-82
2022/11/04 10:17:08;;;;;;;7.03;1.27;;;12.40;99.90;;;;;;5016600;28;20049;-86
2022/11/04 10:20:04;;;;;;;13.15;2.63;;;12.60;99.90;;;;;;5000260;28;20053;-85
2022/11/04 10:22:48;;;;;;;5.63;1.30;;;12.80;99.90;;;;;;5016779;28;20567;-89
2022/11/04 10:25:20;;;;;;;7.63;1.48;;;13.00;99.90;;;;;;5034802;28;20124;-82
2022/11/04 10:27:47;;;;;;;10.18;1.88;;;12.90;99.90;;;;;;5033624;28;20674;-84
2022/11/04 10:30:23;;;;;;;8.88;1.30;;;12.80;99.90;;;;;;5016902;28;20863;-91
2022/11/04 10:33:15;;;;;;;8.30;1.20;;;12.70;99.90;;;;;;5038806;28;20054;-82
2022/11/04 10:35:44;;;;;;;8.25;1.80;;;12.50;99.90;;;;;;5034040;28;20056;-87
2022/11/04 10:38:14;;;;;;;9.48;2.25;;;12.30;99.90;;;;;;5016041;28;20049;-83
2022/11/04 10:40:44;;;;;;;11.40;1.90;;;12.10;99.90;;;;;;5019593;28;20056;-84
2022/11/04 10:43:14;;;;;;;16.70;2.50;;;12.00;99.90;;;;;;5034669;28;20042;-82
2022/11/04 10:46:05;;;;;;;8.93;1.58;;;11.90;99.90;;;;;;5034833;28;20287;-83
2022/11/04 10:48:39;;;;;;;10.20;1.48;;;11.80;99.90;;;;;;5015507;28;20062;-88
2022/11/04 10:51:05;;;;;;;9.65;1.65;;;11.70;99.90;;;;;;5033767;28;20061;-85
2022/11/04 10:53:32;;;;;;;9.93;1.77;;;11.70;99.90;;;;;;5033842;28;20815;-88
2022/11/04 10:56:26;;;;;;;11.38;2.40;;;11.60;99.90;;;;;;5037690;28;20160;-91
2022/11/04 10:58:54;;;;;;;10.48;1.73;;;11.60;99.90;;;;;;5015309;28;20088;-85
2022/11/04 11:01:34;;;;;;;7.95;1.55;;;11.60;99.90;;;;;;5014523;28;20053;-84
2022/11/04 11:04:01;;;;;;;10.55;1.25;;;11.50;99.90;;;;;;5015547;28;20110;-84
2022/11/04 11:06:28;;;;;;;12.43;1.63;;;11.50;99.90;;;;;;5033537;28;20164;-88
2022/11/04 11:09:16;;;;;;;12.25;1.80;;;11.40;99.90;;;;;;5000551;28;20053;-86
2022/11/04 11:11:48;;;;;;;7.85;1.42;;;11.40;99.90;;;;;;5043580;28;20049;-89
2022/11/04 11:14:27;;;;;;;9.77;1.65;;;11.30;99.90;;;;;;5033993;28;20156;-84
2022/11/04 11:16:53;;;;;;;9.60;1.63;;;11.20;99.90;;;;;;5015356;28;20049;-84
2022/11/04 11:19:23;;;;;;;8.80;1.50;;;11.10;99.90;;;;;;5034137;28;20057;-84
2022/11/04 11:21:55;;;;;;;8.73;1.60;;;11.00;99.90;;;;;;5033223;28;20425;-86
2022/11/04 11:24:25;;;;;;;11.60;2.25;;;10.90;99.90;;;;;;5033794;28;20045;-84
2022/11/04 11:27:02;;;;;;;9.32;1.85;;;10.90;99.90;;;;;;5020175;28;20053;-87
2022/11/04 11:29:38;;;;;;;10.35;2.10;;;10.90;99.90;;;;;;5020473;28;20049;-91
2022/11/04 11:32:17;;;;;;;10.35;2.40;;;11.00;99.90;;;;;;4998807;28;20516;-84
2022/11/04 11:34:46;;;;;;;7.53;1.38;;;11.10;99.90;;;;;;5018305;28;20140;-92
2022/11/04 11:37:22;;;;;;;7.93;1.40;;;11.20;99.90;;;;;;5037290;28;20112;-84
2022/11/04 11:39:48;;;;;;;8.68;1.85;;;11.30;99.90;;;;;;5020470;28;20056;-91
2022/11/04 11:42:15;;;;;;;8.48;1.40;;;11.40;99.90;;;;;;5034289;28;20054;-90
2022/11/04 11:44:47;;;;;;;8.73;1.60;;;11.40;99.90;;;;;;5019289;28;20060;-87
2022/11/04 11:47:26;;;;;;;5.25;1.20;;;11.60;99.90;;;;;;5032318;28;20045;-87
2022/11/04 11:50:14;;;;;;;8.02;1.50;;;11.70;99.90;;;;;;5016527;28;20058;-87
2022/11/04 11:52:41;;;;;;;8.88;2.28;;;12.30;99.90;;;;;;5020423;28;20100;-85
2022/11/04 11:55:26;;;;;;;6.80;1.35;;;13.40;99.90;;;;;;5018107;28;20053;-88
2022/11/04 11:58:00;;;;;;;6.85;1.00;;;14.30;99.90;;;;;;5033983;28;20053;-87
2022/11/04 12:00:31;;;;;;;8.90;1.30;;;14.20;99.90;;;;;;5034619;28;20049;-87
2022/11/04 12:03:14;;;;;;;11.27;1.52;;;15.10;99.90;;;;;;5026781;28;20081;-83
2022/11/04 12:06:06;;;;;;;10.82;1.65;;;16.10;99.90;;;;;;5038918;28;20057;-86
2022/11/04 12:09:11;;;;;;;13.05;1.77;;;17.60;99.90;;;;;;5036792;28;20053;-90
2022/11/04 12:12:03;;;;;;;8.50;1.20;;;18.80;99.90;;;;;;4978863;28;20534;-83
2022/11/04 12:14:55;;;;;;;9.68;1.45;;;19.50;99.90;;;;;;5032323;28;20057;-89
2022/11/04 12:17:30;;;;;;;4.72;1.15;;;20.40;99.90;;;;;;5035212;28;20061;-84
2022/11/04 12:20:15;;;;;;;7.25;1.30;;;20.30;99.90;;;;;;5016511;28;20064;-88
2022/11/04 12:22:43;;;;;;;8.98;1.95;;;20.70;99.90;;;;;;5003390;28;20096;-85
2022/11/04 12:25:37;;;;;;;9.02;1.60;;;20.90;99.80;;;;;;5014811;28;20056;-83
2022/11/04 12:28:30;;;;;;;8.40;1.40;;;21.30;99.50;;;;;;5014734;28;20485;-85
2022/11/04 12:31:02;;;;;;;7.15;1.42;;;21.70;97.60;;;;;;5041811;28;20397;-83
2022/11/04 12:33:38;;;;;;;9.45;2.00;;;21.80;97.70;;;;;;5038167;28;20140;-88
2022/11/04 12:36:30;;;;;;;9.38;1.73;;;22.00;96.40;;;;;;5038601;28;20045;-82
2022/11/04 12:39:12;;;;;;;6.55;1.52;;;22.30;95.00;;;;;;5020446;28;20057;-86
2022/11/04 12:42:05;;;;;;;8.80;1.75;;;21.80;96.40;;;;;;5022022;28;20049;-93
2022/11/04 12:44:33;;;;;;;6.90;1.42;;;20.80;96.00;;;;;;5021832;28;20095;-82
2022/11/04 12:47:25;;;;;;;17.83;1.85;;;20.30;98.30;;;;;;5039680;28;20095;-83
2022/11/04 12:50:19;;;;;;;10.73;1.90;;;20.70;96.40;;;;;;5040735;28;20057;-85
2022/11/04 12:53:16;;;;;;;11.23;1.98;;;20.60;94.30;;;;;;5020258;28;20095;-88
2022/11/04 12:55:51;;;;;;;9.57;2.03;;;19.70;94.30;;;;;;5022162;28;20057;-83
2022/11/04 12:58:53;;;;;;;12.27;2.63;;;19.00;98.90;;;;;;5000287;28;20597;-87
2022/11/04 13:01:55;;;;;;;13.48;2.85;;;18.60;98.70;;;;;;5032304;28;20398;-87
2022/11/04 13:05:04;;;;;;;11.35;1.20;;;18.50;99.30;;;;;;5020118;28;20049;-89
2022/11/04 13:07:40;;;;;;;7.80;1.70;;;17.90;99.10;;;;;;5013703;28;20449;-88
2022/11/04 13:10:19;;;;;;;8.13;1.80;;;17.20;99.90;;;;;;5036902;28;20053;-82
2022/11/04 13:12:48;;;;;;;11.40;1.67;;;17.10;99.90;;;;;;5038419;28;20075;-82
2022/11/04 13:15:19;;;;;;;12.85;2.30;;;17.10;99.90;;;;;;5034570;28;20107;-82
2022/11/04 13:17:48;;;;;;;7.18;1.60;;;16.80;99.90;;;;;;5023180;28;20096;-85
2022/11/04 13:20:41;;;;;;;13.60;3.70;;;16.60;99.90;;;;;;5021987;28;20132;-89
2022/11/04 13:23:32;;;;;;;11.00;2.20;;;16.40;99.90;;;;;;5020484;28;20160;-86
2022/11/04 13:26:00;;;;;;;16.10;2.20;;;16.40;99.90;;;;;;5000642;28;20054;-92
2022/11/04 13:28:27;;;;;;;11.27;2.33;;;16.20;99.90;;;;;;5043133;28;20135;-93
2022/11/04 13:31:11;;;;;;;10.45;1.88;;;16.10;99.90;;;;;;5036256;28;20501;-92
2022/11/04 13:33:47;;;;;;;8.48;1.58;;;16.00;99.90;;;;;;5036076;28;20057;-91
2022/11/04 13:36:40;;;;;;;7.28;1.58;;;15.90;99.90;;;;;;5038064;28;20144;-86
2022/11/04 13:39:15;;;;;;;8.60;2.08;;;15.90;99.90;;;;;;5037045;28;20053;-90
2022/11/04 13:42:07;;;;;;;;;;;15.90;99.90;;;;;;5035922;28;20054;-88
2022/11/04 13:44:45;;;;;;;8.20;1.92;;;16.00;99.90;;;;;;5032609;28;19925;-85